sensor_id;sensor_type;location;lat;lon;timestamp;P1;durP1;ratioP1;P2;durP2;ratioP2
37529;SDS011;23374;52.758;6.872;2022-10-31T00:00:10;17.33;;;8.60;;
37529;SDS011;23374;52.758;6.872;2022-10-31T00:02:31;15.90;;;8.30;;
37529;SDS011;23374;52.758;6.872;2022-10-31T00:04:52;14.70;;;7.97;;
37529;SDS011;23374;52.758;6.872;2022-10-31T00:07:13;23.70;;;9.53;;
37529;SDS011;23374;52.758;6.872;2022-10-31T00:09:33;15.73;;;8.50;;
37529;SDS011;23374;52.758;6.872;2022-10-31T00:11:55;17.37;;;8.23;;
37529;SDS011;23374;52.758;6.872;2022-10-31T00:14:15;18.60;;;8.43;;
37529;SDS011;23374;52.758;6.872;2022-10-31T00:16:35;16.83;;;8.10;;
37529;SDS011;23374;52.758;6.872;2022-10-31T00:19:01;16.80;;;8.90;;
37529;SDS011;23374;52.758;6.872;2022-10-31T00:21:24;21.93;;;9.27;;
37529;SDS011;23374;52.758;6.872;2022-10-31T00:23:45;17.33;;;9.27;;
37529;SDS011;23374;52.758;6.872;2022-10-31T00:26:05;21.03;;;9.50;;
37529;SDS011;23374;52.758;6.872;2022-10-31T00:28:26;21.67;;;10.53;;
37529;SDS011;23374;52.758;6.872;2022-10-31T00:30:47;17.80;;;9.83;;
37529;SDS011;23374;52.758;6.872;2022-10-31T00:33:07;24.13;;;9.53;;
37529;SDS011;23374;52.758;6.872;2022-10-31T00:35:27;21.37;;;10.17;;
37529;SDS011;23374;52.758;6.872;2022-10-31T00:37:48;19.50;;;10.50;;
37529;SDS011;23374;52.758;6.872;2022-10-31T00:40:09;21.23;;;10.93;;
37529;SDS011;23374;52.758;6.872;2022-10-31T00:42:31;17.80;;;9.87;;
37529;SDS011;23374;52.758;6.872;2022-10-31T00:44:51;18.17;;;9.90;;
37529;SDS011;23374;52.758;6.872;2022-10-31T00:47:11;21.30;;;11.83;;
37529;SDS011;23374;52.758;6.872;2022-10-31T00:49:31;22.17;;;10.07;;
37529;SDS011;23374;52.758;6.872;2022-10-31T00:51:52;22.60;;;9.57;;
37529;SDS011;23374;52.758;6.872;2022-10-31T00:54:12;18.63;;;9.57;;
37529;SDS011;23374;52.758;6.872;2022-10-31T00:56:32;21.00;;;10.57;;
37529;SDS011;23374;52.758;6.872;2022-10-31T00:58:52;19.53;;;9.63;;
37529;SDS011;23374;52.758;6.872;2022-10-31T01:01:13;18.07;;;9.60;;
37529;SDS011;23374;52.758;6.872;2022-10-31T01:03:33;20.20;;;10.23;;
37529;SDS011;23374;52.758;6.872;2022-10-31T01:06:01;18.43;;;10.00;;
37529;SDS011;23374;52.758;6.872;2022-10-31T01:08:27;17.40;;;9.33;;
37529;SDS011;23374;52.758;6.872;2022-10-31T01:11:05;21.07;;;10.37;;
37529;SDS011;23374;52.758;6.872;2022-10-31T01:13:36;24.67;;;10.20;;
37529;SDS011;23374;52.758;6.872;2022-10-31T01:15:57;22.13;;;10.83;;
37529;SDS011;23374;52.758;6.872;2022-10-31T01:18:18;25.33;;;10.10;;
37529;SDS011;23374;52.758;6.872;2022-10-31T01:20:38;21.10;;;10.10;;
37529;SDS011;23374;52.758;6.872;2022-10-31T01:22:58;23.40;;;10.33;;
37529;SDS011;23374;52.758;6.872;2022-10-31T01:25:18;20.23;;;9.53;;
37529;SDS011;23374;52.758;6.872;2022-10-31T01:27:38;19.07;;;10.43;;
37529;SDS011;23374;52.758;6.872;2022-10-31T01:29:59;21.00;;;10.40;;
37529;SDS011;23374;52.758;6.872;2022-10-31T01:32:19;22.20;;;9.90;;
37529;SDS011;23374;52.758;6.872;2022-10-31T01:34:39;18.23;;;10.80;;
37529;SDS011;23374;52.758;6.872;2022-10-31T01:37:00;19.23;;;10.33;;
37529;SDS011;23374;52.758;6.872;2022-10-31T01:39:20;24.97;;;10.37;;
37529;SDS011;23374;52.758;6.872;2022-10-31T01:41:48;21.07;;;10.03;;
37529;SDS011;23374;52.758;6.872;2022-10-31T01:44:56;18.60;;;9.87;;
37529;SDS011;23374;52.758;6.872;2022-10-31T01:47:24;19.20;;;10.20;;
37529;SDS011;23374;52.758;6.872;2022-10-31T01:49:57;19.43;;;9.17;;
37529;SDS011;23374;52.758;6.872;2022-10-31T01:52:25;17.13;;;9.17;;
37529;SDS011;23374;52.758;6.872;2022-10-31T01:55:09;17.60;;;9.23;;
37529;SDS011;23374;52.758;6.872;2022-10-31T01:57:41;19.43;;;8.37;;
37529;SDS011;23374;52.758;6.872;2022-10-31T02:00:08;21.17;;;8.50;;
37529;SDS011;23374;52.758;6.872;2022-10-31T02:02:29;16.97;;;8.57;;
37529;SDS011;23374;52.758;6.872;2022-10-31T02:04:51;19.00;;;8.70;;
37529;SDS011;23374;52.758;6.872;2022-10-31T02:07:14;17.60;;;9.10;;
37529;SDS011;23374;52.758;6.872;2022-10-31T02:09:38;20.80;;;8.57;;
37529;SDS011;23374;52.758;6.872;2022-10-31T02:12:00;15.53;;;8.13;;
37529;SDS011;23374;52.758;6.872;2022-10-31T02:14:22;15.37;;;8.30;;
37529;SDS011;23374;52.758;6.872;2022-10-31T02:16:45;15.87;;;7.20;;
37529;SDS011;23374;52.758;6.872;2022-10-31T02:19:05;12.00;;;7.37;;
37529;SDS011;23374;52.758;6.872;2022-10-31T02:21:47;15.20;;;7.70;;
37529;SDS011;23374;52.758;6.872;2022-10-31T02:33:59;11.80;;;6.53;;
37529;SDS011;23374;52.758;6.872;2022-10-31T02:41:04;12.70;;;7.17;;
37529;SDS011;23374;52.758;6.872;2022-10-31T02:44:15;11.40;;;7.37;;
37529;SDS011;23374;52.758;6.872;2022-10-31T02:48:00;14.40;;;6.87;;
37529;SDS011;23374;52.758;6.872;2022-10-31T02:50:30;14.23;;;7.13;;
37529;SDS011;23374;52.758;6.872;2022-10-31T02:52:54;11.70;;;6.63;;
37529;SDS011;23374;52.758;6.872;2022-10-31T02:56:17;13.97;;;7.40;;
37529;SDS011;23374;52.758;6.872;2022-10-31T02:58:50;15.83;;;8.47;;
37529;SDS011;23374;52.758;6.872;2022-10-31T03:02:06;15.50;;;7.60;;
37529;SDS011;23374;52.758;6.872;2022-10-31T03:05:23;12.70;;;7.30;;
37529;SDS011;23374;52.758;6.872;2022-10-31T03:13:47;10.70;;;6.43;;
37529;SDS011;23374;52.758;6.872;2022-10-31T03:17:02;13.43;;;6.67;;
37529;SDS011;23374;52.758;6.872;2022-10-31T03:19:29;11.93;;;5.63;;
37529;SDS011;23374;52.758;6.872;2022-10-31T03:21:57;12.67;;;6.77;;
37529;SDS011;23374;52.758;6.872;2022-10-31T03:24:29;8.60;;;6.37;;
37529;SDS011;23374;52.758;6.872;2022-10-31T03:26:53;10.33;;;5.80;;
37529;SDS011;23374;52.758;6.872;2022-10-31T03:29:18;11.73;;;6.80;;
37529;SDS011;23374;52.758;6.872;2022-10-31T03:31:58;10.93;;;5.60;;
37529;SDS011;23374;52.758;6.872;2022-10-31T03:35:08;10.63;;;6.20;;
37529;SDS011;23374;52.758;6.872;2022-10-31T03:37:33;10.37;;;5.87;;
37529;SDS011;23374;52.758;6.872;2022-10-31T03:39:55;8.50;;;5.50;;
37529;SDS011;23374;52.758;6.872;2022-10-31T03:42:27;10.47;;;6.07;;
37529;SDS011;23374;52.758;6.872;2022-10-31T03:45:15;12.27;;;6.83;;
37529;SDS011;23374;52.758;6.872;2022-10-31T03:47:39;8.07;;;4.67;;
37529;SDS011;23374;52.758;6.872;2022-10-31T03:50:00;9.13;;;5.80;;
37529;SDS011;23374;52.758;6.872;2022-10-31T03:52:57;11.30;;;5.37;;
37529;SDS011;23374;52.758;6.872;2022-10-31T03:55:33;9.87;;;5.80;;
37529;SDS011;23374;52.758;6.872;2022-10-31T03:58:23;9.93;;;5.43;;
37529;SDS011;23374;52.758;6.872;2022-10-31T04:00:50;10.23;;;5.57;;
37529;SDS011;23374;52.758;6.872;2022-10-31T04:03:19;8.40;;;5.57;;
37529;SDS011;23374;52.758;6.872;2022-10-31T04:05:46;9.37;;;4.47;;
37529;SDS011;23374;52.758;6.872;2022-10-31T04:08:10;10.23;;;5.63;;
37529;SDS011;23374;52.758;6.872;2022-10-31T04:10:37;9.43;;;5.57;;
37529;SDS011;23374;52.758;6.872;2022-10-31T04:13:03;10.23;;;6.10;;
37529;SDS011;23374;52.758;6.872;2022-10-31T04:15:27;11.47;;;6.17;;
37529;SDS011;23374;52.758;6.872;2022-10-31T04:17:50;9.43;;;6.10;;
37529;SDS011;23374;52.758;6.872;2022-10-31T04:20:17;10.40;;;6.27;;
37529;SDS011;23374;52.758;6.872;2022-10-31T04:22:38;10.07;;;5.97;;
37529;SDS011;23374;52.758;6.872;2022-10-31T04:24:58;9.33;;;5.27;;
37529;SDS011;23374;52.758;6.872;2022-10-31T04:27:18;10.03;;;5.37;;
37529;SDS011;23374;52.758;6.872;2022-10-31T04:29:38;9.73;;;6.20;;
37529;SDS011;23374;52.758;6.872;2022-10-31T04:31:58;7.93;;;5.43;;
37529;SDS011;23374;52.758;6.872;2022-10-31T04:34:18;8.53;;;5.80;;
37529;SDS011;23374;52.758;6.872;2022-10-31T04:36:38;8.10;;;4.70;;
37529;SDS011;23374;52.758;6.872;2022-10-31T04:38:58;8.77;;;4.77;;
37529;SDS011;23374;52.758;6.872;2022-10-31T04:41:19;8.50;;;4.77;;
37529;SDS011;23374;52.758;6.872;2022-10-31T04:43:39;8.13;;;5.13;;
37529;SDS011;23374;52.758;6.872;2022-10-31T04:46:00;7.47;;;5.37;;
37529;SDS011;23374;52.758;6.872;2022-10-31T04:48:20;8.00;;;4.87;;
37529;SDS011;23374;52.758;6.872;2022-10-31T04:50:40;10.63;;;5.57;;
37529;SDS011;23374;52.758;6.872;2022-10-31T04:53:01;6.93;;;4.47;;
37529;SDS011;23374;52.758;6.872;2022-10-31T04:55:22;11.40;;;5.40;;
37529;SDS011;23374;52.758;6.872;2022-10-31T04:57:43;10.03;;;5.87;;
37529;SDS011;23374;52.758;6.872;2022-10-31T05:00:06;8.93;;;5.63;;
37529;SDS011;23374;52.758;6.872;2022-10-31T05:02:27;11.07;;;5.60;;
37529;SDS011;23374;52.758;6.872;2022-10-31T05:04:47;9.40;;;5.57;;
37529;SDS011;23374;52.758;6.872;2022-10-31T05:07:07;12.57;;;6.03;;
37529;SDS011;23374;52.758;6.872;2022-10-31T05:09:27;11.40;;;6.33;;
37529;SDS011;23374;52.758;6.872;2022-10-31T05:11:48;11.47;;;6.43;;
37529;SDS011;23374;52.758;6.872;2022-10-31T05:14:08;9.73;;;5.80;;
37529;SDS011;23374;52.758;6.872;2022-10-31T05:16:28;8.93;;;4.90;;
37529;SDS011;23374;52.758;6.872;2022-10-31T05:18:48;8.07;;;5.17;;
37529;SDS011;23374;52.758;6.872;2022-10-31T05:21:09;10.67;;;5.47;;
37529;SDS011;23374;52.758;6.872;2022-10-31T05:23:29;9.80;;;6.23;;
37529;SDS011;23374;52.758;6.872;2022-10-31T05:25:49;9.20;;;5.93;;
37529;SDS011;23374;52.758;6.872;2022-10-31T05:28:10;10.77;;;5.43;;
37529;SDS011;23374;52.758;6.872;2022-10-31T05:30:31;11.93;;;6.20;;
37529;SDS011;23374;52.758;6.872;2022-10-31T05:32:52;10.87;;;7.07;;
37529;SDS011;23374;52.758;6.872;2022-10-31T05:35:15;9.87;;;5.87;;
37529;SDS011;23374;52.758;6.872;2022-10-31T05:37:37;12.73;;;6.60;;
37529;SDS011;23374;52.758;6.872;2022-10-31T05:39:58;13.13;;;6.30;;
37529;SDS011;23374;52.758;6.872;2022-10-31T05:42:19;11.40;;;6.80;;
37529;SDS011;23374;52.758;6.872;2022-10-31T05:44:39;9.67;;;6.00;;
37529;SDS011;23374;52.758;6.872;2022-10-31T05:46:59;13.93;;;7.33;;
37529;SDS011;23374;52.758;6.872;2022-10-31T05:49:19;11.83;;;6.17;;
37529;SDS011;23374;52.758;6.872;2022-10-31T05:51:40;10.27;;;5.90;;
37529;SDS011;23374;52.758;6.872;2022-10-31T05:54:00;12.37;;;6.50;;
37529;SDS011;23374;52.758;6.872;2022-10-31T05:56:20;13.43;;;8.10;;
37529;SDS011;23374;52.758;6.872;2022-10-31T05:58:40;13.07;;;6.83;;
37529;SDS011;23374;52.758;6.872;2022-10-31T06:01:00;15.17;;;7.37;;
37529;SDS011;23374;52.758;6.872;2022-10-31T06:03:20;13.40;;;7.70;;
37529;SDS011;23374;52.758;6.872;2022-10-31T06:05:41;16.63;;;7.73;;
37529;SDS011;23374;52.758;6.872;2022-10-31T06:08:01;16.03;;;7.93;;
37529;SDS011;23374;52.758;6.872;2022-10-31T06:10:22;14.93;;;7.50;;
37529;SDS011;23374;52.758;6.872;2022-10-31T06:12:42;13.87;;;8.07;;
37529;SDS011;23374;52.758;6.872;2022-10-31T06:15:04;13.77;;;7.77;;
37529;SDS011;23374;52.758;6.872;2022-10-31T06:17:26;11.43;;;7.13;;
37529;SDS011;23374;52.758;6.872;2022-10-31T06:19:46;11.67;;;6.77;;
37529;SDS011;23374;52.758;6.872;2022-10-31T06:22:06;10.13;;;6.70;;
37529;SDS011;23374;52.758;6.872;2022-10-31T06:24:26;13.20;;;7.50;;
37529;SDS011;23374;52.758;6.872;2022-10-31T06:26:46;11.53;;;7.23;;
37529;SDS011;23374;52.758;6.872;2022-10-31T06:29:07;11.87;;;6.83;;
37529;SDS011;23374;52.758;6.872;2022-10-31T06:31:30;15.83;;;7.80;;
37529;SDS011;23374;52.758;6.872;2022-10-31T06:33:50;11.40;;;6.53;;
37529;SDS011;23374;52.758;6.872;2022-10-31T06:36:11;13.17;;;7.23;;
37529;SDS011;23374;52.758;6.872;2022-10-31T06:38:31;13.43;;;7.30;;
37529;SDS011;23374;52.758;6.872;2022-10-31T06:40:51;12.53;;;7.40;;
37529;SDS011;23374;52.758;6.872;2022-10-31T06:43:12;11.67;;;8.17;;
37529;SDS011;23374;52.758;6.872;2022-10-31T06:45:34;12.93;;;7.03;;
37529;SDS011;23374;52.758;6.872;2022-10-31T06:47:54;10.20;;;6.70;;
37529;SDS011;23374;52.758;6.872;2022-10-31T06:50:16;11.30;;;6.43;;
37529;SDS011;23374;52.758;6.872;2022-10-31T06:52:36;12.53;;;6.20;;
37529;SDS011;23374;52.758;6.872;2022-10-31T06:54:56;14.30;;;6.83;;
37529;SDS011;23374;52.758;6.872;2022-10-31T06:57:16;14.00;;;6.80;;
37529;SDS011;23374;52.758;6.872;2022-10-31T06:59:37;11.53;;;6.47;;
37529;SDS011;23374;52.758;6.872;2022-10-31T07:01:57;13.30;;;7.17;;
37529;SDS011;23374;52.758;6.872;2022-10-31T07:04:18;9.43;;;5.93;;
37529;SDS011;23374;52.758;6.872;2022-10-31T07:06:38;12.83;;;6.57;;
37529;SDS011;23374;52.758;6.872;2022-10-31T07:08:58;10.90;;;5.87;;
37529;SDS011;23374;52.758;6.872;2022-10-31T07:11:19;9.87;;;6.47;;
37529;SDS011;23374;52.758;6.872;2022-10-31T07:13:39;12.03;;;6.63;;
37529;SDS011;23374;52.758;6.872;2022-10-31T07:16:01;10.10;;;6.50;;
37529;SDS011;23374;52.758;6.872;2022-10-31T07:18:23;13.07;;;6.43;;
37529;SDS011;23374;52.758;6.872;2022-10-31T07:20:43;11.30;;;5.47;;
37529;SDS011;23374;52.758;6.872;2022-10-31T07:23:04;9.40;;;5.53;;
37529;SDS011;23374;52.758;6.872;2022-10-31T07:25:25;9.53;;;6.00;;
37529;SDS011;23374;52.758;6.872;2022-10-31T07:27:45;9.10;;;6.10;;
37529;SDS011;23374;52.758;6.872;2022-10-31T07:30:06;10.40;;;6.77;;
37529;SDS011;23374;52.758;6.872;2022-10-31T07:32:37;11.30;;;7.13;;
37529;SDS011;23374;52.758;6.872;2022-10-31T07:35:03;11.37;;;7.37;;
37529;SDS011;23374;52.758;6.872;2022-10-31T07:37:27;13.40;;;7.93;;
37529;SDS011;23374;52.758;6.872;2022-10-31T07:39:47;15.37;;;8.77;;
37529;SDS011;23374;52.758;6.872;2022-10-31T07:42:07;18.37;;;9.20;;
37529;SDS011;23374;52.758;6.872;2022-10-31T07:44:28;16.27;;;9.20;;
37529;SDS011;23374;52.758;6.872;2022-10-31T07:46:48;18.53;;;10.03;;
37529;SDS011;23374;52.758;6.872;2022-10-31T07:49:08;29.97;;;10.33;;
37529;SDS011;23374;52.758;6.872;2022-10-31T07:51:28;23.37;;;9.63;;
37529;SDS011;23374;52.758;6.872;2022-10-31T07:53:49;19.73;;;10.03;;
37529;SDS011;23374;52.758;6.872;2022-10-31T07:56:09;25.27;;;10.90;;
37529;SDS011;23374;52.758;6.872;2022-10-31T07:58:29;20.67;;;11.53;;
37529;SDS011;23374;52.758;6.872;2022-10-31T08:00:50;27.27;;;11.87;;
37529;SDS011;23374;52.758;6.872;2022-10-31T08:03:15;27.80;;;11.83;;
37529;SDS011;23374;52.758;6.872;2022-10-31T08:05:37;25.33;;;12.63;;
37529;SDS011;23374;52.758;6.872;2022-10-31T08:07:58;22.07;;;11.83;;
37529;SDS011;23374;52.758;6.872;2022-10-31T08:10:18;27.90;;;12.67;;
37529;SDS011;23374;52.758;6.872;2022-10-31T08:12:39;23.87;;;12.37;;
37529;SDS011;23374;52.758;6.872;2022-10-31T08:14:59;23.90;;;12.67;;
37529;SDS011;23374;52.758;6.872;2022-10-31T08:17:20;25.07;;;11.33;;
37529;SDS011;23374;52.758;6.872;2022-10-31T08:19:40;25.03;;;11.63;;
37529;SDS011;23374;52.758;6.872;2022-10-31T08:22:00;29.07;;;13.63;;
37529;SDS011;23374;52.758;6.872;2022-10-31T08:24:21;27.93;;;11.63;;
37529;SDS011;23374;52.758;6.872;2022-10-31T08:26:42;23.80;;;12.47;;
37529;SDS011;23374;52.758;6.872;2022-10-31T08:29:03;23.27;;;12.67;;
37529;SDS011;23374;52.758;6.872;2022-10-31T08:31:24;22.83;;;12.17;;
37529;SDS011;23374;52.758;6.872;2022-10-31T08:33:46;29.40;;;13.83;;
37529;SDS011;23374;52.758;6.872;2022-10-31T08:36:07;27.57;;;12.00;;
37529;SDS011;23374;52.758;6.872;2022-10-31T08:38:27;24.90;;;12.70;;
37529;SDS011;23374;52.758;6.872;2022-10-31T08:40:48;23.87;;;12.33;;
37529;SDS011;23374;52.758;6.872;2022-10-31T08:43:13;28.87;;;14.03;;
37529;SDS011;23374;52.758;6.872;2022-10-31T08:45:35;24.63;;;13.33;;
37529;SDS011;23374;52.758;6.872;2022-10-31T08:48:03;25.10;;;12.93;;
37529;SDS011;23374;52.758;6.872;2022-10-31T08:50:26;24.73;;;12.93;;
37529;SDS011;23374;52.758;6.872;2022-10-31T08:52:48;26.37;;;12.93;;
37529;SDS011;23374;52.758;6.872;2022-10-31T08:55:08;25.90;;;13.80;;
37529;SDS011;23374;52.758;6.872;2022-10-31T08:57:29;22.77;;;13.10;;
37529;SDS011;23374;52.758;6.872;2022-10-31T08:59:49;25.03;;;12.87;;
37529;SDS011;23374;52.758;6.872;2022-10-31T09:02:09;27.30;;;14.30;;
37529;SDS011;23374;52.758;6.872;2022-10-31T09:04:30;24.23;;;12.33;;
37529;SDS011;23374;52.758;6.872;2022-10-31T09:06:50;26.10;;;12.87;;
37529;SDS011;23374;52.758;6.872;2022-10-31T09:09:10;22.90;;;13.53;;
37529;SDS011;23374;52.758;6.872;2022-10-31T09:11:30;27.10;;;12.73;;
37529;SDS011;23374;52.758;6.872;2022-10-31T09:13:52;21.37;;;13.17;;
37529;SDS011;23374;52.758;6.872;2022-10-31T09:16:12;23.03;;;12.97;;
37529;SDS011;23374;52.758;6.872;2022-10-31T09:18:33;23.00;;;12.23;;
37529;SDS011;23374;52.758;6.872;2022-10-31T09:20:54;23.03;;;11.73;;
37529;SDS011;23374;52.758;6.872;2022-10-31T09:23:21;23.03;;;11.77;;
37529;SDS011;23374;52.758;6.872;2022-10-31T09:25:42;25.90;;;12.93;;
37529;SDS011;23374;52.758;6.872;2022-10-31T09:28:05;21.53;;;12.10;;
37529;SDS011;23374;52.758;6.872;2022-10-31T09:30:28;24.73;;;11.23;;
37529;SDS011;23374;52.758;6.872;2022-10-31T09:32:57;23.03;;;11.50;;
37529;SDS011;23374;52.758;6.872;2022-10-31T09:35:19;21.20;;;12.00;;
37529;SDS011;23374;52.758;6.872;2022-10-31T09:37:39;25.20;;;11.67;;
37529;SDS011;23374;52.758;6.872;2022-10-31T09:40:00;23.07;;;11.23;;
37529;SDS011;23374;52.758;6.872;2022-10-31T09:42:47;21.47;;;11.80;;
37529;SDS011;23374;52.758;6.872;2022-10-31T09:53:04;24.97;;;11.07;;
37529;SDS011;23374;52.758;6.872;2022-10-31T09:55:44;26.00;;;11.63;;
37529;SDS011;23374;52.758;6.872;2022-10-31T09:58:18;25.20;;;11.17;;
37529;SDS011;23374;52.758;6.872;2022-10-31T10:00:43;24.00;;;12.27;;
37529;SDS011;23374;52.758;6.872;2022-10-31T10:03:47;22.20;;;11.13;;
37529;SDS011;23374;52.758;6.872;2022-10-31T10:06:24;22.13;;;11.07;;
37529;SDS011;23374;52.758;6.872;2022-10-31T10:08:48;25.10;;;11.67;;
37529;SDS011;23374;52.758;6.872;2022-10-31T10:11:38;23.83;;;11.43;;
37529;SDS011;23374;52.758;6.872;2022-10-31T10:14:38;22.37;;;11.10;;
37529;SDS011;23374;52.758;6.872;2022-10-31T10:17:50;20.80;;;11.03;;
37529;SDS011;23374;52.758;6.872;2022-10-31T10:21:36;21.80;;;11.40;;
37529;SDS011;23374;52.758;6.872;2022-10-31T10:24:51;23.67;;;11.57;;
37529;SDS011;23374;52.758;6.872;2022-10-31T10:28:17;21.23;;;10.83;;
37529;SDS011;23374;52.758;6.872;2022-10-31T10:31:00;22.17;;;11.37;;
37529;SDS011;23374;52.758;6.872;2022-10-31T10:33:30;22.37;;;11.53;;
37529;SDS011;23374;52.758;6.872;2022-10-31T10:36:12;24.03;;;11.27;;
37529;SDS011;23374;52.758;6.872;2022-10-31T10:38:59;20.30;;;10.73;;
37529;SDS011;23374;52.758;6.872;2022-10-31T10:41:26;20.73;;;10.33;;
37529;SDS011;23374;52.758;6.872;2022-10-31T10:43:51;18.93;;;11.03;;
37529;SDS011;23374;52.758;6.872;2022-10-31T10:46:40;19.87;;;11.00;;
37529;SDS011;23374;52.758;6.872;2022-10-31T10:49:43;24.17;;;11.60;;
37529;SDS011;23374;52.758;6.872;2022-10-31T10:52:33;24.03;;;11.47;;
37529;SDS011;23374;52.758;6.872;2022-10-31T10:55:14;29.50;;;12.57;;
37529;SDS011;23374;52.758;6.872;2022-10-31T10:58:01;24.43;;;12.27;;
37529;SDS011;23374;52.758;6.872;2022-10-31T11:00:41;18.03;;;10.40;;
37529;SDS011;23374;52.758;6.872;2022-10-31T11:03:05;24.80;;;12.27;;
37529;SDS011;23374;52.758;6.872;2022-10-31T11:05:52;22.70;;;11.27;;
37529;SDS011;23374;52.758;6.872;2022-10-31T11:08:32;19.77;;;10.07;;
37529;SDS011;23374;52.758;6.872;2022-10-31T11:11:22;25.33;;;10.60;;
37529;SDS011;23374;52.758;6.872;2022-10-31T11:13:47;21.03;;;10.27;;
37529;SDS011;23374;52.758;6.872;2022-10-31T11:16:15;18.13;;;8.53;;
37529;SDS011;23374;52.758;6.872;2022-10-31T11:19:24;16.73;;;9.20;;
37529;SDS011;23374;52.758;6.872;2022-10-31T11:21:47;19.37;;;8.43;;
37529;SDS011;23374;52.758;6.872;2022-10-31T11:24:16;17.77;;;8.57;;
37529;SDS011;23374;52.758;6.872;2022-10-31T11:26:38;19.83;;;9.03;;
37529;SDS011;23374;52.758;6.872;2022-10-31T11:29:00;15.60;;;8.57;;
37529;SDS011;23374;52.758;6.872;2022-10-31T11:31:22;19.33;;;8.90;;
37529;SDS011;23374;52.758;6.872;2022-10-31T11:33:48;17.93;;;7.87;;
37529;SDS011;23374;52.758;6.872;2022-10-31T11:36:31;17.60;;;8.70;;
37529;SDS011;23374;52.758;6.872;2022-10-31T11:38:55;15.90;;;8.97;;
37529;SDS011;23374;52.758;6.872;2022-10-31T11:41:29;19.50;;;8.97;;
37529;SDS011;23374;52.758;6.872;2022-10-31T11:44:37;19.80;;;8.20;;
37529;SDS011;23374;52.758;6.872;2022-10-31T11:47:03;17.17;;;8.57;;
37529;SDS011;23374;52.758;6.872;2022-10-31T11:49:36;22.80;;;8.43;;
37529;SDS011;23374;52.758;6.872;2022-10-31T11:52:03;18.57;;;9.07;;
37529;SDS011;23374;52.758;6.872;2022-10-31T11:58:38;14.90;;;7.93;;
37529;SDS011;23374;52.758;6.872;2022-10-31T12:00:59;22.90;;;9.17;;
37529;SDS011;23374;52.758;6.872;2022-10-31T12:03:43;19.90;;;8.57;;
37529;SDS011;23374;52.758;6.872;2022-10-31T12:06:30;19.63;;;8.20;;
37529;SDS011;23374;52.758;6.872;2022-10-31T12:08:53;16.70;;;8.13;;
37529;SDS011;23374;52.758;6.872;2022-10-31T12:11:40;16.27;;;7.43;;
37529;SDS011;23374;52.758;6.872;2022-10-31T12:15:38;16.70;;;7.67;;
37529;SDS011;23374;52.758;6.872;2022-10-31T12:19:04;17.27;;;7.30;;
37529;SDS011;23374;52.758;6.872;2022-10-31T12:21:59;16.80;;;7.30;;
37529;SDS011;23374;52.758;6.872;2022-10-31T12:24:35;9.53;;;6.00;;
37529;SDS011;23374;52.758;6.872;2022-10-31T12:27:27;12.07;;;6.50;;
37529;SDS011;23374;52.758;6.872;2022-10-31T12:30:30;12.83;;;6.23;;
37529;SDS011;23374;52.758;6.872;2022-10-31T12:34:33;13.70;;;6.13;;
37529;SDS011;23374;52.758;6.872;2022-10-31T12:39:39;11.93;;;5.83;;
37529;SDS011;23374;52.758;6.872;2022-10-31T12:53:39;15.03;;;5.70;;
37529;SDS011;23374;52.758;6.872;2022-10-31T12:57:57;7.73;;;4.40;;
37529;SDS011;23374;52.758;6.872;2022-10-31T13:00:22;10.03;;;4.73;;
37529;SDS011;23374;52.758;6.872;2022-10-31T13:03:09;8.33;;;5.17;;
37529;SDS011;23374;52.758;6.872;2022-10-31T13:08:15;8.20;;;4.50;;
37529;SDS011;23374;52.758;6.872;2022-10-31T13:11:11;9.40;;;5.27;;
37529;SDS011;23374;52.758;6.872;2022-10-31T13:13:44;11.57;;;4.90;;
37529;SDS011;23374;52.758;6.872;2022-10-31T13:17:44;11.10;;;5.23;;
37529;SDS011;23374;52.758;6.872;2022-10-31T13:20:28;7.70;;;4.27;;
37529;SDS011;23374;52.758;6.872;2022-10-31T13:23:05;12.63;;;5.80;;
37529;SDS011;23374;52.758;6.872;2022-10-31T13:25:57;9.83;;;5.27;;
37529;SDS011;23374;52.758;6.872;2022-10-31T13:28:31;8.60;;;4.77;;
37529;SDS011;23374;52.758;6.872;2022-10-31T13:30:58;9.70;;;4.43;;
37529;SDS011;23374;52.758;6.872;2022-10-31T13:33:54;10.27;;;4.60;;
37529;SDS011;23374;52.758;6.872;2022-10-31T13:36:38;8.23;;;4.53;;
37529;SDS011;23374;52.758;6.872;2022-10-31T13:39:22;8.50;;;4.93;;
37529;SDS011;23374;52.758;6.872;2022-10-31T13:44:14;13.37;;;5.30;;
37529;SDS011;23374;52.758;6.872;2022-10-31T13:46:39;11.57;;;5.03;;
37529;SDS011;23374;52.758;6.872;2022-10-31T13:49:03;9.33;;;4.67;;
37529;SDS011;23374;52.758;6.872;2022-10-31T13:51:26;11.83;;;5.27;;
37529;SDS011;23374;52.758;6.872;2022-10-31T13:54:31;8.53;;;5.07;;
37529;SDS011;23374;52.758;6.872;2022-10-31T13:56:54;11.07;;;5.13;;
37529;SDS011;23374;52.758;6.872;2022-10-31T13:59:24;9.40;;;4.87;;
37529;SDS011;23374;52.758;6.872;2022-10-31T14:01:49;10.00;;;4.97;;
37529;SDS011;23374;52.758;6.872;2022-10-31T14:04:20;9.43;;;5.33;;
37529;SDS011;23374;52.758;6.872;2022-10-31T14:07:19;10.00;;;5.10;;
37529;SDS011;23374;52.758;6.872;2022-10-31T14:10:01;11.67;;;5.43;;
37529;SDS011;23374;52.758;6.872;2022-10-31T14:12:38;10.30;;;5.13;;
37529;SDS011;23374;52.758;6.872;2022-10-31T14:15:23;13.27;;;5.33;;
37529;SDS011;23374;52.758;6.872;2022-10-31T14:17:54;8.17;;;4.47;;
37529;SDS011;23374;52.758;6.872;2022-10-31T14:20:39;10.07;;;4.80;;
37529;SDS011;23374;52.758;6.872;2022-10-31T14:23:39;10.83;;;4.60;;
37529;SDS011;23374;52.758;6.872;2022-10-31T14:29:33;9.27;;;4.73;;
37529;SDS011;23374;52.758;6.872;2022-10-31T14:34:58;10.43;;;3.97;;
37529;SDS011;23374;52.758;6.872;2022-10-31T14:37:35;8.17;;;4.57;;
37529;SDS011;23374;52.758;6.872;2022-10-31T14:43:05;7.40;;;3.90;;
37529;SDS011;23374;52.758;6.872;2022-10-31T14:46:18;8.00;;;4.27;;
37529;SDS011;23374;52.758;6.872;2022-10-31T14:50:24;8.23;;;4.37;;
37529;SDS011;23374;52.758;6.872;2022-10-31T14:53:00;8.70;;;4.73;;
37529;SDS011;23374;52.758;6.872;2022-10-31T14:55:24;13.50;;;4.40;;
37529;SDS011;23374;52.758;6.872;2022-10-31T14:58:00;11.23;;;4.97;;
37529;SDS011;23374;52.758;6.872;2022-10-31T15:00:25;7.23;;;3.97;;
37529;SDS011;23374;52.758;6.872;2022-10-31T15:03:15;11.27;;;5.40;;
37529;SDS011;23374;52.758;6.872;2022-10-31T15:05:56;12.93;;;5.50;;
37529;SDS011;23374;52.758;6.872;2022-10-31T15:08:32;10.40;;;4.97;;
37529;SDS011;23374;52.758;6.872;2022-10-31T15:10:55;9.97;;;6.00;;
37529;SDS011;23374;52.758;6.872;2022-10-31T15:13:20;16.00;;;5.97;;
37529;SDS011;23374;52.758;6.872;2022-10-31T15:15:41;9.53;;;5.90;;
37529;SDS011;23374;52.758;6.872;2022-10-31T15:18:03;11.43;;;5.70;;
37529;SDS011;23374;52.758;6.872;2022-10-31T15:20:27;14.50;;;6.53;;
37529;SDS011;23374;52.758;6.872;2022-10-31T15:22:49;10.87;;;5.70;;
37529;SDS011;23374;52.758;6.872;2022-10-31T15:25:21;12.03;;;5.70;;
37529;SDS011;23374;52.758;6.872;2022-10-31T15:27:43;15.23;;;5.67;;
37529;SDS011;23374;52.758;6.872;2022-10-31T15:30:19;13.00;;;7.17;;
37529;SDS011;23374;52.758;6.872;2022-10-31T15:32:45;12.00;;;6.60;;
37529;SDS011;23374;52.758;6.872;2022-10-31T15:35:09;9.60;;;5.97;;
37529;SDS011;23374;52.758;6.872;2022-10-31T15:37:29;13.20;;;6.27;;
37529;SDS011;23374;52.758;6.872;2022-10-31T15:39:50;14.30;;;6.07;;
37529;SDS011;23374;52.758;6.872;2022-10-31T15:42:26;12.57;;;6.30;;
37529;SDS011;23374;52.758;6.872;2022-10-31T15:48:12;12.27;;;6.73;;
37529;SDS011;23374;52.758;6.872;2022-10-31T15:50:40;14.73;;;6.47;;
37529;SDS011;23374;52.758;6.872;2022-10-31T15:53:06;13.60;;;6.27;;
37529;SDS011;23374;52.758;6.872;2022-10-31T15:55:52;12.00;;;6.53;;